sensor_id;sensor_type;location;lat;lon;timestamp;pressure;altitude;pressure_sealevel;temperature;humidity
44453;BME280;30155;52.164;21.236;2022-07-29T15:45:22;100803.58;;;27.92;34.87
44453;BME280;30155;52.164;21.236;2022-07-29T15:50:14;100798.41;;;27.71;34.31
44453;BME280;30155;52.164;21.236;2022-07-29T15:55:08;100790.28;;;27.39;34.51
44453;BME280;30155;52.164;21.236;2022-07-29T16:00:01;100784.80;;;27.34;34.72
44453;BME280;30155;52.164;21.236;2022-07-29T16:04:57;100788.06;;;27.13;34.61
44453;BME280;30155;52.164;21.236;2022-07-29T16:09:49;100791.98;;;26.97;35.07
44453;BME280;30155;52.164;21.236;2022-07-29T16:14:43;100784.75;;;26.73;34.94
44453;BME280;30155;52.164;21.236;2022-07-29T16:19:35;100789.44;;;26.68;35.20
44453;BME280;30155;52.164;21.236;2022-07-29T16:24:29;100791.48;;;26.24;35.02
44453;BME280;30155;52.164;21.236;2022-07-29T16:29:22;100784.27;;;25.68;35.99
44453;BME280;30155;52.164;21.236;2022-07-29T16:34:14;100791.13;;;25.22;36.43
44453;BME280;30155;52.164;21.236;2022-07-29T16:39:07;100794.86;;;24.86;36.89
44453;BME280;30155;52.164;21.236;2022-07-29T16:44:01;100792.55;;;24.56;37.27
44453;BME280;30155;52.164;21.236;2022-07-29T16:48:53;100797.41;;;24.33;37.62
44453;BME280;30155;52.164;21.236;2022-07-29T16:53:46;100806.95;;;24.15;37.92
44453;BME280;30155;52.164;21.236;2022-07-29T16:58:39;100802.73;;;23.97;38.21
44453;BME280;30155;52.164;21.236;2022-07-29T17:03:31;100811.62;;;23.85;38.45
44453;BME280;30155;52.164;21.236;2022-07-29T17:08:23;100816.35;;;23.75;38.82
44453;BME280;30155;52.164;21.236;2022-07-29T17:13:16;100815.88;;;23.64;39.07
44453;BME280;30155;52.164;21.236;2022-07-29T17:18:08;100816.69;;;23.54;39.56
44453;BME280;30155;52.164;21.236;2022-07-29T17:23:01;100817.06;;;23.43;39.69
44453;BME280;30155;52.164;21.236;2022-07-29T17:27:54;100812.94;;;23.34;40.41
44453;BME280;30155;52.164;21.236;2022-07-29T17:32:46;100815.40;;;23.27;40.11
44453;BME280;30155;52.164;21.236;2022-07-29T17:37:39;100816.11;;;23.32;40.01
44453;BME280;30155;52.164;21.236;2022-07-29T17:42:31;100831.97;;;23.20;41.11
44453;BME280;30155;52.164;21.236;2022-07-29T17:47:23;100826.27;;;23.06;41.71
44453;BME280;30155;52.164;21.236;2022-07-29T17:52:15;100835.35;;;22.97;41.82
44453;BME280;30155;52.164;21.236;2022-07-29T17:57:09;100826.13;;;22.82;42.36
44453;BME280;30155;52.164;21.236;2022-07-29T18:02:01;100821.30;;;22.67;41.88
44453;BME280;30155;52.164;21.236;2022-07-29T18:06:53;100818.12;;;22.56;41.78
44453;BME280;30155;52.164;21.236;2022-07-29T18:11:46;100817.57;;;22.44;41.88
44453;BME280;30155;52.164;21.236;2022-07-29T18:16:39;100824.48;;;22.35;42.10
44453;BME280;30155;52.164;21.236;2022-07-29T18:21:31;100823.41;;;22.26;42.26
44453;BME280;30155;52.164;21.236;2022-07-29T18:26:24;100825.09;;;22.14;42.69
44453;BME280;30155;52.164;21.236;2022-07-29T18:31:16;100819.33;;;21.99;43.24
44453;BME280;30155;52.164;21.236;2022-07-29T18:36:08;100819.36;;;21.83;44.06
44453;BME280;30155;52.164;21.236;2022-07-29T18:41:00;100825.99;;;21.66;44.31
44453;BME280;30155;52.164;21.236;2022-07-29T18:45:53;100825.89;;;21.53;44.43
44453;BME280;30155;52.164;21.236;2022-07-29T18:50:45;100825.64;;;21.44;44.24
44453;BME280;30155;52.164;21.236;2022-07-29T18:55:37;100828.11;;;21.36;44.34
44453;BME280;30155;52.164;21.236;2022-07-29T19:00:29;100832.22;;;21.29;44.50
44453;BME280;30155;52.164;21.236;2022-07-29T19:05:22;100835.10;;;21.20;44.88
44453;BME280;30155;52.164;21.236;2022-07-29T19:10:14;100834.02;;;21.11;45.24
44453;BME280;30155;52.164;21.236;2022-07-29T19:15:08;100837.42;;;20.98;45.58
44453;BME280;30155;52.164;21.236;2022-07-29T19:20:01;100846.43;;;20.89;45.73
44453;BME280;30155;52.164;21.236;2022-07-29T19:24:57;100846.22;;;20.79;45.99
44453;BME280;30155;52.164;21.236;2022-07-29T19:29:49;100851.78;;;20.67;46.70
44453;BME280;30155;52.164;21.236;2022-07-29T19:34:41;100856.08;;;20.51;47.10
44453;BME280;30155;52.164;21.236;2022-07-29T19:39:36;100851.06;;;20.39;47.00
44453;BME280;30155;52.164;21.236;2022-07-29T19:44:28;100841.02;;;20.35;47.16
44453;BME280;30155;52.164;21.236;2022-07-29T19:49:20;100838.45;;;20.31;47.73
44453;BME280;30155;52.164;21.236;2022-07-29T19:54:13;100834.64;;;20.25;47.55
44453;BME280;30155;52.164;21.236;2022-07-29T19:59:06;100836.02;;;20.22;47.58
44453;BME280;30155;52.164;21.236;2022-07-29T20:03:58;100827.76;;;20.17;47.76
44453;BME280;30155;52.164;21.236;2022-07-29T20:08:50;100839.69;;;20.14;47.74
44453;BME280;30155;52.164;21.236;2022-07-29T20:13:42;100845.51;;;20.09;47.86
44453;BME280;30155;52.164;21.236;2022-07-29T20:18:37;100849.17;;;20.02;47.94
44453;BME280;30155;52.164;21.236;2022-07-29T20:23:30;100858.06;;;19.98;47.95
44453;BME280;30155;52.164;21.236;2022-07-29T20:28:22;100862.12;;;19.92;48.15
44453;BME280;30155;52.164;21.236;2022-07-29T20:33:15;100859.16;;;19.86;48.22
44453;BME280;30155;52.164;21.236;2022-07-29T20:38:07;100853.13;;;19.79;48.37
44453;BME280;30155;52.164;21.236;2022-07-29T20:42:59;100846.19;;;19.72;48.50
44453;BME280;30155;52.164;21.236;2022-07-29T20:47:51;100841.92;;;19.65;48.63
44453;BME280;30155;52.164;21.236;2022-07-29T20:52:44;100833.30;;;19.57;48.75
44453;BME280;30155;52.164;21.236;2022-07-29T20:57:36;100834.72;;;19.51;48.92
44453;BME280;30155;52.164;21.236;2022-07-29T21:02:29;100830.41;;;19.47;49.00
44453;BME280;30155;52.164;21.236;2022-07-29T21:07:21;100831.77;;;19.43;49.03
44453;BME280;30155;52.164;21.236;2022-07-29T21:12:14;100827.46;;;19.39;49.21
44453;BME280;30155;52.164;21.236;2022-07-29T21:17:06;100834.20;;;19.32;49.29
44453;BME280;30155;52.164;21.236;2022-07-29T21:21:59;100833.78;;;19.29;49.44
44453;BME280;30155;52.164;21.236;2022-07-29T21:26:51;100825.03;;;19.27;49.51
44453;BME280;30155;52.164;21.236;2022-07-29T21:31:46;100830.35;;;19.24;49.54
44453;BME280;30155;52.164;21.236;2022-07-29T21:36:38;100818.99;;;19.20;49.65
44453;BME280;30155;52.164;21.236;2022-07-29T21:41:30;100810.27;;;19.17;49.72
44453;BME280;30155;52.164;21.236;2022-07-29T21:46:23;100813.86;;;19.13;49.78
44453;BME280;30155;52.164;21.236;2022-07-29T21:51:15;100815.22;;;19.10;49.94
44453;BME280;30155;52.164;21.236;2022-07-29T21:56:07;100813.06;;;19.08;50.00
44453;BME280;30155;52.164;21.236;2022-07-29T22:01:00;100815.31;;;19.05;50.07
44453;BME280;30155;52.164;21.236;2022-07-29T22:05:52;100808.33;;;19.01;50.17
44453;BME280;30155;52.164;21.236;2022-07-29T22:10:44;100812.38;;;18.96;50.27
44453;BME280;30155;52.164;21.236;2022-07-29T22:15:37;100811.58;;;18.91;50.46
44453;BME280;30155;52.164;21.236;2022-07-29T22:20:29;100812.57;;;18.84;50.57
44453;BME280;30155;52.164;21.236;2022-07-29T22:25:21;100809.98;;;18.78;50.69
44453;BME280;30155;52.164;21.236;2022-07-29T22:30:13;100798.63;;;18.74;50.83
44453;BME280;30155;52.164;21.236;2022-07-29T22:35:07;100796.06;;;18.71;50.95
44453;BME280;30155;52.164;21.236;2022-07-29T22:40:00;100794.40;;;18.65;51.01
44453;BME280;30155;52.164;21.236;2022-07-29T22:44:53;100790.96;;;18.60;51.14
44453;BME280;30155;52.164;21.236;2022-07-29T22:49:45;100798.88;;;18.59;51.26
44453;BME280;30155;52.164;21.236;2022-07-29T22:54:37;100797.58;;;18.57;51.30
44453;BME280;30155;52.164;21.236;2022-07-29T22:59:30;100798.45;;;18.56;51.40
44453;BME280;30155;52.164;21.236;2022-07-29T23:04:22;100787.55;;;18.52;51.40
44453;BME280;30155;52.164;21.236;2022-07-29T23:09:15;100784.08;;;18.50;51.49
44453;BME280;30155;52.164;21.236;2022-07-29T23:14:07;100788.47;;;18.51;51.54
44453;BME280;30155;52.164;21.236;2022-07-29T23:18:59;100784.47;;;18.53;51.55
44453;BME280;30155;52.164;21.236;2022-07-29T23:23:52;100779.64;;;18.54;51.71
44453;BME280;30155;52.164;21.236;2022-07-29T23:28:44;100779.70;;;18.49;51.60
44453;BME280;30155;52.164;21.236;2022-07-29T23:33:36;100777.06;;;18.49;51.72
44453;BME280;30155;52.164;21.236;2022-07-29T23:38:28;100774.89;;;18.48;51.76
44453;BME280;30155;52.164;21.236;2022-07-29T23:43:21;100769.22;;;18.47;51.74
44453;BME280;30155;52.164;21.236;2022-07-29T23:48:13;100766.60;;;18.46;51.84
44453;BME280;30155;52.164;21.236;2022-07-29T23:53:05;100764.83;;;18.46;52.58
44453;BME280;30155;52.164;21.236;2022-07-29T23:57:58;100767.98;;;18.40;52.65
